Data for 02/01/2018

Time Sea-Level Adjusted Pressure Absolute Pressure Temperature Relative Humidity Dew Point   
(mb) (inHg) (mb) (inHg) (C) (F) (%) (C) (F)
00:05 1020 30.12 849 25.07 -3.9 24.9 51 -12.5 9.5
00:10 1020 30.12 849 25.07 -3.9 25 51 -12.6 9.2
00:15 1020 30.12 849 25.07 -3.9 25 52 -12.4 9.6
00:20 1020 30.12 849 25.07 -3.9 24.9 52 -12.3 9.8
00:25 1020 30.12 849 25.07 -4 24.9 52 -12.5 9.5
00:30 1020 30.12 849 25.07 -4 24.8 52 -12.4 9.7
00:35 1020 30.12 849 25.07 -4 24.8 54 -12 10.3
00:40 1020 30.12 849 25.07 -4 24.8 53 -12.3 9.9
00:45 1020 30.12 849 25.07 -4 24.7 54 -12.1 10.2
00:50 1020 30.12 849 25.07 -4.1 24.7 54 -12.1 10.1
00:55 1020 30.12 849 25.07 -4.2 24.5 53 -12.3 9.9
01:00 1020 30.12 849 25.07 -4.2 24.4 55 -12 10.3
01:05 1020 30.12 849 25.07 -4.2 24.4 54 -12.2 10
01:10 1020 30.12 849 25.07 -4.3 24.3 56 -11.8 10.7
01:15 1020 30.12 849 25.07 -4.5 24 56 -12 10.4
01:20 1020 30.12 849 25.07 -4.7 23.5 57 -12.1 10.3
01:25 1020 30.12 849 25.07 -4.6 23.7 57 -12 10.4
01:30 1020 30.12 849 25.07 -4.5 23.9 57 -11.8 10.7
01:35 1020 30.12 849 25.07 -4.5 23.9 56 -12 10.3
01:40 1020 30.12 849 25.07 -4.5 23.9 57 -11.8 10.7
01:45 1020 30.12 849 25.07 -4.6 23.7 57 -11.9 10.5
01:50 1020 30.12 850 25.1 -4.6 23.6 56 -12.2 10.1
01:55 1020 30.12 850 25.1 -4.5 23.8 56 -12.1 10.3
02:00 1020 30.12 850 25.1 -4.5 23.9 57 -11.8 10.7
02:05 1021 30.15 850 25.1 -4.5 23.8 58 -11.7 11
02:10 1021 30.15 850 25.1 -4.6 23.8 57 -11.8 10.8
02:15 1021 30.15 850 25.1 -4.7 23.5 58 -11.7 10.9
02:20 1021 30.15 850 25.1 -4.7 23.6 59 -11.6 11.2
02:25 1021 30.15 850 25.1 -4.6 23.8 58 -11.6 11
02:30 1021 30.15 850 25.1 -4.6 23.8 59 -11.5 11.3
02:35 1021 30.15 850 25.1 -4.6 23.8 59 -11.5 11.3
02:40 1021 30.15 850 25.1 -4.5 23.9 58 -11.6 11.2
02:45 1021 30.15 850 25.1 -4.5 23.9 58 -11.6 11.2
02:50 1021 30.15 850 25.1 -4.5 24 59 -11.4 11.5
02:55 1021 30.15 850 25.1 -4.5 23.9 59 -11.4 11.6
03:00 1021 30.15 850 25.1 -4.6 23.8 59 -11.4 11.5
03:05 1021 30.15 850 25.1 -4.6 23.8 59 -11.3 11.6
03:10 1021 30.15 850 25.1 -4.6 23.7 60 -11.1 11.9
03:15 1021 30.15 850 25.1 -4.6 23.8 61 -11 12.2
03:20 1021 30.15 850 25.1 -4.5 23.9 60 -11.1 12
03:25 1021 30.15 850 25.1 -4.6 23.8 60 -11.2 11.9
03:30 1021 30.15 850 25.1 -4.5 23.8 60 -11.2 11.9
03:35 1021 30.15 850 25.1 -4.5 23.9 62 -10.8 12.6
03:40 1021 30.15 850 25.1 -4.6 23.7 62 -10.9 12.4
03:45 1021 30.15 850 25.1 -4.7 23.5 62 -11 12.2
03:50 1021 30.15 850 25.1 -4.8 23.4 61 -11.2 11.8
03:55 1021 30.15 850 25.1 -4.9 23.2 61 -11.3 11.7
04:00 1021 30.15 851 25.13 -4.9 23.2 61 -11.3 11.6
04:05 1021 30.15 851 25.13 -4.9 23.2 61 -11.3 11.6
04:10 1021 30.15 851 25.13 -5 23.1 60 -11.5 11.3
04:15 1021 30.15 851 25.13 -4.9 23.2 60 -11.6 11.1
04:20 1021 30.15 851 25.13 -4.9 23.2 60 -11.5 11.2
04:25 1021 30.15 851 25.13 -4.9 23.1 60 -11.5 11.3
04:30 1021 30.15 851 25.13 -5 23 61 -11.5 11.3
04:35 1022 30.18 851 25.13 -5 23.1 60 -11.5 11.3
04:40 1022 30.18 851 25.13 -5 23 61 -11.5 11.4
04:45 1022 30.18 851 25.13 -5 23 61 -11.5 11.3
04:50 1022 30.18 851 25.13 -5 23 61 -11.4 11.5
04:55 1022 30.18 851 25.13 -4.9 23.2 61 -11.3 11.6
05:00 1022 30.18 851 25.13 -4.8 23.3 60 -11.4 11.5
05:05 1022 30.18 851 25.13 -4.8 23.3 61 -11.4 11.6
05:10 1022 30.18 851 25.13 -4.8 23.3 61 -11.3 11.6
05:15 1022 30.18 851 25.13 -4.8 23.3 60 -11.4 11.5
05:20 1022 30.18 851 25.13 -4.7 23.5 60 -11.4 11.4
05:25 1022 30.18 851 25.13 -4.6 23.7 60 -11.2 11.8
05:30 1022 30.18 851 25.13 -4.7 23.6 61 -11.1 12.1
05:35 1022 30.18 851 25.13 -4.7 23.5 61 -11.2 11.8
05:40 1022 30.18 851 25.13 -4.7 23.5 61 -11.2 11.9
05:45 1022 30.18 851 25.13 -4.6 23.7 59 -11.4 11.5
05:50 1022 30.18 851 25.13 -4.4 24 60 -11.2 11.9
05:55 1022 30.18 851 25.13 -4.4 24.1 60 -11 12.2
06:00 1022 30.18 851 25.13 -4.5 23.8 62 -10.8 12.5
06:05 1022 30.18 851 25.13 -4.8 23.4 63 -10.8 12.6
06:10 1022 30.18 851 25.13 -4.9 23.2 63 -10.9 12.5
06:15 1022 30.18 851 25.13 -4.8 23.3 63 -10.9 12.4
06:20 1022 30.18 851 25.13 -4.8 23.3 63 -10.9 12.4
06:25 1022 30.18 851 25.13 -4.8 23.4 63 -10.8 12.5
06:30 1022 30.18 851 25.13 -4.8 23.4 62 -11 12.1
06:35 1022 30.18 851 25.13 -4.8 23.4 61 -11.2 11.9
06:40 1022 30.18 851 25.13 -4.8 23.4 61 -11.3 11.7
06:45 1022 30.18 851 25.13 -4.8 23.4 61 -11.2 11.9
06:50 1022 30.18 851 25.13 -4.7 23.5 61 -11.1 12
06:55 1022 30.18 851 25.13 -4.8 23.4 61 -11.2 11.8
07:00 1022 30.18 851 25.13 -4.8 23.3 61 -11.2 11.8
07:05 1022 30.18 851 25.13 -4.8 23.3 62 -11.1 12
07:10 1022 30.18 851 25.13 -4.9 23.2 63 -10.8 12.5
07:15 1022 30.18 851 25.13 -5.1 22.9 63 -11 12.2
07:20 1022 30.18 851 25.13 -5.1 22.9 62 -11.2 11.8
07:25 1022 30.18 851 25.13 -4.9 23.2 62 -11 12.1
07:30 1022 30.18 851 25.13 -4.9 23.1 63 -11 12.1
07:35 1022 30.18 851 25.13 -5 23 63 -11 12.3
07:40 1022 30.18 851 25.13 -5.1 22.8 63 -11 12.1
07:45 1022 30.18 852 25.16 -5.2 22.7 63 -11.1 12
07:50 1022 30.18 852 25.16 -5.1 22.8 64 -10.8 12.5
07:55 1022 30.18 852 25.16 -5.5 22.2 65 -11 12.2
08:00 1022 30.18 852 25.16 -5.5 22 67 -10.7 12.7
08:05 1022 30.18 852 25.16 -6 21.3 68 -10.9 12.4
08:10 1022 30.18 852 25.16 -6.3 20.7 70 -11 12.2
08:15 1022 30.18 852 25.16 -6.1 21 69 -11 12.2
08:20 1022 30.18 852 25.16 -6 21.1 68 -11.1 12
08:25 1022 30.18 852 25.16 -6.1 21.1 67 -11.2 11.8
08:30 1022 30.18 852 25.16 -6 21.2 66 -11.3 11.6
08:35 1022 30.18 852 25.16 -6 21.2 66 -11.4 11.6
08:40 1023 30.21 852 25.16 -6.1 21 65 -11.6 11.1
08:45 1023 30.21 852 25.16 -6 21.2 64 -11.7 10.9
08:50 1023 30.21 852 25.16 -5.4 22.2 61 -11.7 10.9
08:55 1023 30.21 852 25.16 -5.1 22.8 60 -11.8 10.8
09:00 1022 30.18 852 25.16 -4.8 23.3 59 -11.7 11
09:05 1023 30.21 852 25.16 -4.3 24.3 57 -11.6 11.1
09:10 1023 30.21 852 25.16 -4.2 24.4 57 -11.5 11.2
09:15 1023 30.21 852 25.16 -4.1 24.7 55 -11.8 10.8
09:20 1023 30.21 852 25.16 -4.1 24.6 54 -12 10.3
09:25 1023 30.21 852 25.16 -4.1 24.7 54 -12.1 10.3
09:30 1023 30.21 852 25.16 -3.4 25.9 52 -11.9 10.6
09:35 1023 30.21 852 25.16 -3.7 25.3 55 -11.6 11.1
09:40 1023 30.21 852 25.16 -3.9 25 54 -11.9 10.6
09:45 1023 30.21 852 25.16 -3.8 25.2 54 -11.8 10.7
09:50 1023 30.21 852 25.16 -3.5 25.7 51 -12.2 10
09:55 1023 30.21 852 25.16 -3.1 26.4 50 -12 10.4
10:00 1023 30.21 852 25.16 -3.4 25.9 52 -11.9 10.5
10:05 1022 30.18 852 25.16 -3.1 26.4 50 -12.1 10.2
10:10 1022 30.18 852 25.16 -3.1 26.4 52 -11.7 11
10:15 1022 30.18 852 25.16 -2.5 27.5 49 -11.7 10.9
10:20 1022 30.18 852 25.16 -1.8 28.7 46 -11.9 10.6
10:25 1022 30.18 852 25.16 -1.8 28.8 46 -11.9 10.6
10:30 1023 30.21 852 25.16 -1.3 29.6 46 -11.6 11.1
10:35 1023 30.21 852 25.16 -1.3 29.7 45 -11.9 10.6
10:40 1023 30.21 852 25.16 -0.7 30.7 44 -11.6 11.1
10:45 1023 30.21 852 25.16 -0.4 31.2 45 -10.9 12.4
10:50 1023 30.21 852 25.16 -0.9 30.4 46 -11.1 11.9
10:55 1023 30.21 852 25.16 -1.2 29.9 47 -11.2 11.9
11:00 1022 30.18 852 25.16 -0.6 30.9 45 -11.2 11.8
11:05 1023 30.21 852 25.16 -0.2 31.6 42 -11.6 11.2
11:10 1023 30.21 852 25.16 -0.2 31.6 45 -10.9 12.3
11:15 1023 30.21 852 25.16 0.2 32.4 41 -11.6 11.2
11:20 1022 30.18 852 25.16 0.1 32.2 43 -11.1 12
11:25 1022 30.18 852 25.16 0 32 41 -11.6 11.2
11:30 1022 30.18 852 25.16 0.4 32.6 41 -11.4 11.6
11:35 1022 30.18 852 25.16 -0.1 31.8 43 -11.4 11.5
11:40 1022 30.18 852 25.16 0.6 33.1 39 -11.9 10.5
11:45 1022 30.18 851 25.13 0.2 32.4 35 -13.4 7.9
11:50 1022 30.18 851 25.13 0.4 32.8 37 -12.8 9
11:55 1022 30.18 851 25.13 0.1 32.1 39 -12.4 9.7
12:00 1022 30.18 851 25.13 0.2 32.4 38 -12.6 9.4
12:05 1022 30.18 851 25.13 0.5 32.9 36 -12.9 8.9
12:10 1022 30.18 851 25.13 0.1 32.1 37 -12.9 8.7
12:15 1022 30.18 851 25.13 0.5 32.9 35 -13.2 8.2
12:20 1022 30.18 851 25.13 0.8 33.4 35 -13 8.6
12:25 1022 30.18 851 25.13 0.8 33.5 36 -12.8 9
12:30 1022 30.18 851 25.13 0.8 33.5 36 -12.7 9.2
12:35 1022 30.18 851 25.13 0.8 33.4 37 -12.2 10.1
12:40 1022 30.18 851 25.13 1.2 34.1 36 -12.3 9.8
12:45 1022 30.18 851 25.13 1.5 34.6 38 -11.5 11.2
12:50 1022 30.18 851 25.13 1.4 34.5 38 -11.4 11.5
12:55 1022 30.18 851 25.13 0.9 33.6 39 -11.7 11
13:00 1022 30.18 851 25.13 0.6 33 39 -11.9 10.6
13:05 1021 30.15 851 25.13 0.9 33.6 37 -12.1 10.2
13:10 1021 30.15 851 25.13 0.9 33.6 38 -11.9 10.6
13:15 1021 30.15 850 25.1 1.2 34.1 35 -12.6 9.4
13:20 1021 30.15 850 25.1 1.5 34.7 36 -11.9 10.5
13:25 1021 30.15 850 25.1 1.3 34.3 36 -12.4 9.7
13:30 1021 30.15 850 25.1 1 33.8 34 -13.1 8.4
13:35 1021 30.15 850 25.1 0.5 32.8 39 -11.9 10.6
13:40 1021 30.15 850 25.1 0.9 33.6 37 -12.3 9.9
13:45 1021 30.15 850 25.1 1.4 34.5 36 -12.3 9.9
13:50 1021 30.15 850 25.1 1.5 34.8 35 -12.4 9.6
13:55 1021 30.15 850 25.1 1.5 34.6 34 -12.7 9.2
14:00 1021 30.15 850 25.1 0.8 33.5 36 -12.7 9.1
14:05 1021 30.15 850 25.1 0.3 32.5 36 -13.3 8.1
14:10 1021 30.15 850 25.1 -0.1 31.8 38 -12.9 8.7
14:15 1021 30.15 850 25.1 0.7 33.2 37 -12.3 9.8
14:20 1021 30.15 850 25.1 0.3 32.6 39 -12 10.5
14:25 1021 30.15 850 25.1 0.5 32.9 36 -12.9 8.8
14:30 1021 30.15 850 25.1 -0.2 31.7 38 -12.8 9
14:35 1021 30.15 850 25.1 0.3 32.6 37 -12.7 9.2
14:40 1021 30.15 850 25.1 0.2 32.4 37 -12.7 9.1
14:45 1021 30.15 850 25.1 -0 32 39 -12.4 9.6
14:50 1021 30.15 850 25.1 -0.2 31.7 39 -12.5 9.4
14:55 1021 30.15 850 25.1 0.3 32.5 38 -12.3 9.9
15:00 1021 30.15 850 25.1 0.7 33.2 38 -12 10.4
15:05 1021 30.15 850 25.1 0.5 33 40 -11.6 11.1
15:10 1021 30.15 850 25.1 0.6 33.1 40 -11.5 11.2
15:15 1021 30.15 850 25.1 0.6 33 39 -11.8 10.8
15:20 1021 30.15 850 25.1 0.5 32.9 40 -11.7 11
15:25 1021 30.15 850 25.1 0.5 32.9 42 -11.2 11.9
15:30 1021 30.15 850 25.1 0.3 32.5 42 -11.2 11.8
15:35 1021 30.15 850 25.1 -0.1 31.9 45 -10.8 12.6
15:40 1021 30.15 850 25.1 -0.2 31.6 45 -10.7 12.7
15:45 1021 30.15 850 25.1 -0.2 31.6 43 -11.2 11.8
15:50 1021 30.15 850 25.1 -0.3 31.5 42 -11.6 11.1
15:55 1021 30.15 850 25.1 -0.4 31.4 43 -11.4 11.6
16:00 1021 30.15 850 25.1 -0.4 31.3 45 -11 12.2
16:05 1021 30.15 850 25.1 -0 31.9 43 -11.3 11.6
16:10 1021 30.15 850 25.1 -0 32 44 -10.7 12.7
16:15 1021 30.15 850 25.1 0.4 32.7 44 -10.4 13.3
16:20 1021 30.15 850 25.1 0.5 33 44 -10.3 13.5
16:25 1021 30.15 850 25.1 0.3 32.6 44 -10.5 13.1
16:30 1021 30.15 850 25.1 0.3 32.5 44 -10.7 12.7
16:35 1021 30.15 850 25.1 0.4 32.8 43 -10.8 12.6
16:40 1021 30.15 850 25.1 0.6 33 44 -10.4 13.2
16:45 1021 30.15 850 25.1 0.7 33.2 43 -10.6 12.9
16:50 1021 30.15 850 25.1 0.7 33.2 44 -10.2 13.6
16:55 1021 30.15 850 25.1 0.7 33.2 44 -10.2 13.7
17:00 1021 30.15 850 25.1 0.8 33.5 42 -10.6 13
17:05 1021 30.15 850 25.1 1 33.8 41 -10.8 12.6
17:10 1021 30.15 850 25.1 1.3 34.3 38 -11.4 11.5
17:15 1021 30.15 850 25.1 1.4 34.4 39 -11.1 12.1
17:20 1021 30.15 850 25.1 1.4 34.5 39 -11.2 11.8
17:25 1021 30.15 850 25.1 1.4 34.5 39 -11.1 11.9
17:30 1021 30.15 850 25.1 1.3 34.4 40 -10.8 12.5
17:35 1021 30.15 850 25.1 1.3 34.4 40 -10.7 12.7
17:40 1021 30.15 850 25.1 1.2 34.1 42 -10.4 13.2
17:45 1021 30.15 850 25.1 1 33.8 43 -10.2 13.6
17:50 1021 30.15 850 25.1 0.9 33.6 43 -10.4 13.3
17:55 1021 30.15 850 25.1 0.8 33.4 44 -10.1 13.9
18:00 1021 30.15 850 25.1 0.7 33.3 43 -10.6 13
18:05 1021 30.15 850 25.1 0.9 33.6 42 -10.6 12.8
18:10 1021 30.15 850 25.1 1 33.9 42 -10.6 12.9
18:15 1021 30.15 850 25.1 1.2 34.1 41 -10.7 12.7
18:20 1021 30.15 850 25.1 1.2 34.1 43 -10.1 13.8
18:25 1021 30.15 850 25.1 1 33.8 44 -9.9 14.2
18:30 1021 30.15 850 25.1 0.7 33.3 42 -10.9 12.4
18:35 1021 30.15 850 25.1 0.3 32.6 49 -9.3 15.3
18:40 1021 30.15 850 25.1 0.3 32.5 46 -10 13.9
18:45 1021 30.15 850 25.1 0.3 32.5 44 -10.6 12.9
18:50 1021 30.15 850 25.1 0.4 32.7 42 -11.1 12
18:55 1021 30.15 850 25.1 0.7 33.3 41 -11.1 12
19:00 1021 30.15 850 25.1 1.1 33.9 39 -11.3 11.6
19:05 1021 30.15 850 25.1 1.2 34.1 39 -11.4 11.4
19:10 1021 30.15 850 25.1 1.2 34.2 40 -11 12.1
19:15 1021 30.15 850 25.1 1.2 34.2 42 -10.5 13.2
19:20 1021 30.15 850 25.1 1 33.8 43 -10.4 13.3
19:25 1021 30.15 850 25.1 0.8 33.4 43 -10.4 13.3
19:30 1021 30.15 850 25.1 0.6 33.1 44 -10.3 13.4
19:35 1021 30.15 850 25.1 0.6 33.1 43 -10.4 13.2
19:40 1021 30.15 850 25.1 0.6 33.1 45 -10 14
19:45 1021 30.15 850 25.1 0.4 32.8 44 -10.6 13
19:50 1021 30.15 850 25.1 0.5 32.9 43 -10.6 12.9
19:55 1021 30.15 850 25.1 0.7 33.2 43 -10.4 13.3
20:00 1021 30.15 850 25.1 0.7 33.2 44 -10.1 13.7
20:05 1021 30.15 850 25.1 0.6 33.1 44 -10.4 13.4
20:10 1021 30.15 850 25.1 0.5 32.9 44 -10.4 13.2
20:15 1021 30.15 850 25.1 0.5 32.9 43 -10.6 12.9
20:20 1021 30.15 850 25.1 0.5 32.9 43 -10.7 12.8
20:25 1021 30.15 850 25.1 0.5 32.9 46 -9.8 14.4
20:30 1021 30.15 850 25.1 0.5 32.9 45 -10.2 13.7
20:35 1021 30.15 850 25.1 0.4 32.7 45 -10.2 13.7
20:40 1021 30.15 850 25.1 0.1 32.1 50 -9 15.7
20:45 1021 30.15 850 25.1 -0.7 30.8 52 -9.4 15.1
20:50 1021 30.15 850 25.1 -0.9 30.3 50 -10.1 13.8
20:55 1021 30.15 850 25.1 -0.8 30.6 50 -9.8 14.3
21:00 1021 30.15 850 25.1 -0.6 30.9 50 -9.9 14.2
21:05 1021 30.15 850 25.1 -0.6 30.9 50 -9.7 14.5
21:10 1021 30.15 850 25.1 -0.7 30.8 48 -10.3 13.4
21:15 1021 30.15 850 25.1 -0.5 31.1 48 -10.2 13.6
21:20 1021 30.15 850 25.1 -0.4 31.3 47 -10.4 13.3
21:25 1021 30.15 850 25.1 -0.3 31.4 47 -10.4 13.2
21:30 1021 30.15 850 25.1 -0.4 31.2 49 -10 14
21:35 1021 30.15 851 25.13 -0.3 31.4 51 -9.4 15.1
21:40 1021 30.15 851 25.13 -0.4 31.2 48 -10.2 13.6
21:45 1022 30.18 851 25.13 -0.3 31.5 50 -9.4 15.1
21:50 1022 30.18 851 25.13 -0.2 31.7 47 -10.3 13.5
21:55 1022 30.18 851 25.13 0.1 32.1 47 -10 13.9
22:00 1022 30.18 851 25.13 0.1 32.1 48 -9.7 14.5
22:05 1022 30.18 851 25.13 0.1 32.2 49 -9.4 15
22:10 1021 30.15 851 25.13 0.1 32.2 49 -9.3 15.3
22:15 1021 30.15 851 25.13 0.1 32.2 48 -9.6 14.8
22:20 1021 30.15 851 25.13 0.1 32.2 49 -9.4 15.1
22:25 1022 30.18 851 25.13 0.2 32.4 51 -8.7 16.3
22:30 1021 30.15 851 25.13 -0 32 51 -8.9 15.9
22:35 1021 30.15 851 25.13 -0.5 31.1 53 -9 15.9
22:40 1021 30.15 851 25.13 -0.6 30.9 54 -8.8 16.1
22:45 1021 30.15 851 25.13 -0.7 30.8 54 -8.9 15.9
22:50 1021 30.15 851 25.13 -0.5 31.1 51 -9.4 15.1
22:55 1021 30.15 851 25.13 -0.4 31.4 52 -9.1 15.7
23:00 1021 30.15 850 25.1 -0.3 31.4 52 -9 15.8
23:05 1021 30.15 850 25.1 -0.4 31.3 55 -8.4 16.9
23:10 1021 30.15 850 25.1 -0.7 30.7 55 -8.6 16.5
23:15 1021 30.15 850 25.1 -0.8 30.5 57 -8.2 17.2
23:20 1021 30.15 850 25.1 -1 30.1 57 -8.5 16.7
23:25 1021 30.15 850 25.1 -1.1 30.1 57 -8.5 16.8
23:30 1021 30.15 850 25.1 -1.2 29.9 56 -8.9 15.9
23:35 1021 30.15 850 25.1 -0.9 30.4 53 -9.4 15.1
23:40 1021 30.15 850 25.1 -0.8 30.5 53 -9.3 15.2
23:45 1021 30.15 850 25.1 -0.7 30.8 53 -9.2 15.4
23:50 1021 30.15 850 25.1 -0.7 30.8 51 -9.5 14.9
23:55 1021 30.15 850 25.1 -0.5 31.1 52 -9.2 15.5
24:00 1021 30.15 850 25.1 -0.5 31.1 54 -8.8 16.1